< < Back
Terminal Aerodrome Forecast


Current Version              Previous Versions:   1  2  3  4  5  6  7  8  9  

Terminal Aerodrome Forecast

930
FTUS42 KFFC 271127
TAFPDK
TAF
KPDK 271127Z 2712/2812 27008G17KT P6SM BKN035
     FM271800 31013G23KT P6SM SCT040
     FM280000 32007KT P6SM FEW050=

Latest METAR

988
SAUS70 KWBC 281100 RRG
MTRPDK
METAR KPDK 281053Z AUTO 34004KT 10SM CLR M02/M07 A3035 RMK AO2 SLP296
T10221067


USA.gov is the U.S. government's official web portal to all federal, state and local government web resources and services.